createdAt,value
2022-10-09T00:04:22.948Z,100
2022-10-09T00:09:21.060Z,100
2022-10-09T00:14:19.165Z,100
2022-10-09T00:19:17.253Z,100
2022-10-09T00:24:15.277Z,100
2022-10-09T00:29:13.352Z,100
2022-10-09T00:34:11.368Z,100
2022-10-09T00:39:09.654Z,100
2022-10-09T00:44:07.537Z,100
2022-10-09T00:49:05.562Z,100
2022-10-09T00:54:03.547Z,100
2022-10-09T00:59:01.869Z,100
2022-10-09T01:03:59.858Z,100
2022-10-09T01:08:57.676Z,100
2022-10-09T01:13:55.714Z,100
2022-10-09T01:18:53.832Z,100
2022-10-09T01:23:51.890Z,100
2022-10-09T01:28:50.187Z,100
2022-10-09T01:33:48.242Z,100
2022-10-09T01:38:46.564Z,100
2022-10-09T01:43:44.619Z,100
2022-10-09T01:48:42.533Z,100
2022-10-09T01:53:40.689Z,100
2022-10-09T01:58:38.735Z,100
2022-10-09T02:03:36.767Z,100
2022-10-09T02:08:34.988Z,100
2022-10-09T02:13:33.032Z,100
2022-10-09T02:18:31.217Z,100
2022-10-09T02:23:29.298Z,100
2022-10-09T02:28:27.469Z,100
2022-10-09T02:33:25.619Z,100
2022-10-09T02:38:23.853Z,100
2022-10-09T02:43:21.872Z,100
2022-10-09T02:48:20.055Z,100
2022-10-09T02:53:18.125Z,100
2022-10-09T02:58:16.164Z,100
2022-10-09T03:03:14.380Z,100
2022-10-09T03:08:12.384Z,100
2022-10-09T03:13:10.451Z,100
2022-10-09T03:18:08.605Z,100
2022-10-09T03:23:06.546Z,100
2022-10-09T03:28:04.717Z,100
2022-10-09T03:33:02.483Z,100
2022-10-09T03:38:00.570Z,100
2022-10-09T03:42:58.637Z,100
2022-10-09T03:47:56.708Z,100
2022-10-09T03:52:54.891Z,100
2022-10-09T03:57:52.926Z,100
2022-10-09T04:02:51.371Z,100
2022-10-09T04:07:48.900Z,100
2022-10-09T04:12:47.412Z,100
2022-10-09T04:17:45.309Z,100
2022-10-09T04:22:43.399Z,100
2022-10-09T04:27:41.542Z,100
2022-10-09T04:32:39.584Z,100
2022-10-09T04:37:37.714Z,100
2022-10-09T04:42:35.781Z,100
2022-10-09T04:47:34.723Z,100
2022-10-09T04:52:32.957Z,100
2022-10-09T04:57:31.191Z,100
2022-10-09T05:02:29.444Z,100
2022-10-09T05:07:27.808Z,100
2022-10-09T05:12:26.162Z,100
2022-10-09T05:17:24.715Z,100
2022-10-09T05:22:23.650Z,100
2022-10-09T05:27:23.886Z,95.9
2022-10-09T05:32:25.013Z,86.6
2022-10-09T05:37:25.240Z,80.5
2022-10-09T05:42:25.762Z,74.7
2022-10-09T05:47:25.623Z,70.3
2022-10-09T05:52:25.579Z,66.4
2022-10-09T05:57:24.451Z,63.4
2022-10-09T06:02:23.436Z,60.7
2022-10-09T06:07:21.744Z,57.8
2022-10-09T06:12:21.411Z,54.8
2022-10-09T06:17:21.167Z,50.7
2022-10-09T06:22:20.352Z,49.3
2022-10-09T06:27:16.015Z,52.9
2022-10-09T06:32:15.453Z,48.2
2022-10-09T06:37:15.555Z,44.7
2022-10-09T06:42:14.590Z,41.7
2022-10-09T06:47:12.106Z,42.2
2022-10-09T06:52:10.757Z,41.9
2022-10-09T06:57:09.747Z,40.4
2022-10-09T07:02:09.388Z,38.1
2022-10-09T07:07:08.269Z,37.2
2022-10-09T07:12:07.081Z,36.2
2022-10-09T07:17:05.811Z,35.6
2022-10-09T07:22:04.616Z,34.8
2022-10-09T07:27:02.989Z,34.8
2022-10-09T07:32:03.997Z,34.1
2022-10-09T07:37:00.483Z,33.7
2022-10-09T07:41:59.041Z,32.5
2022-10-09T07:46:55.488Z,35.9
2022-10-09T07:51:50.777Z,37.3
2022-10-09T07:56:52.517Z,33
2022-10-09T08:01:52.386Z,30.7
2022-10-09T08:06:51.448Z,29.5
2022-10-09T08:11:48.362Z,31.3
2022-10-09T08:16:43.815Z,35.5
2022-10-09T08:21:40.357Z,37.2
2022-10-09T08:26:37.093Z,39.2
2022-10-09T08:31:35.256Z,39.6
2022-10-09T08:36:32.041Z,42
2022-10-09T08:41:27.998Z,44.4
2022-10-09T08:46:31.738Z,34.7
2022-10-09T08:51:33.120Z,31.2
2022-10-09T08:56:33.047Z,29.2
2022-10-09T09:01:31.025Z,30.3
2022-10-09T09:06:24.092Z,38.1
2022-10-09T09:11:21.360Z,39.7
2022-10-09T09:16:21.709Z,31.8
2022-10-09T09:21:22.091Z,29.8
2022-10-09T09:26:20.879Z,29.7
2022-10-09T09:31:18.809Z,29.5
2022-10-09T09:36:17.257Z,29.8
2022-10-09T09:41:12.497Z,31.7
2022-10-09T09:46:12.680Z,28.7
2022-10-09T09:51:27.251Z,29.1
2022-10-09T09:56:08.519Z,30.4
2022-10-09T10:01:04.735Z,31.8
2022-10-09T10:06:04.731Z,29.5
2022-10-09T10:11:03.613Z,28.5
2022-10-09T10:16:02.004Z,27.8
2022-10-09T10:20:59.791Z,27.6
2022-10-09T10:25:57.824Z,28
2022-10-09T10:30:55.994Z,27
2022-10-09T10:35:54.220Z,27.2
2022-10-09T10:40:52.295Z,27.7
2022-10-09T10:45:50.457Z,27.2
2022-10-09T10:50:48.803Z,28.1
2022-10-09T10:55:46.762Z,28.1
2022-10-09T11:00:44.493Z,27.5
2022-10-09T11:05:42.706Z,27.3
2022-10-09T11:10:40.513Z,27
2022-10-09T11:15:38.644Z,28.3
2022-10-09T11:20:36.507Z,27.9
2022-10-09T11:25:34.185Z,27.8
2022-10-09T11:30:31.989Z,28.4
2022-10-09T11:35:29.785Z,30.2
2022-10-09T11:40:27.496Z,29.8
2022-10-09T11:45:25.255Z,28.7
2022-10-09T11:50:23.187Z,28.6
2022-10-09T11:55:21.366Z,28.8
2022-10-09T12:00:19.056Z,28.3
2022-10-09T12:05:16.788Z,28.3
2022-10-09T12:10:14.528Z,28.4
2022-10-09T12:15:12.235Z,30.1
2022-10-09T12:20:09.351Z,30.3
2022-10-09T12:25:06.264Z,30.9
2022-10-09T12:30:03.534Z,33.5
2022-10-09T12:35:00.474Z,33.4
2022-10-09T12:39:57.729Z,36.4
2022-10-09T12:44:55.551Z,35.6
2022-10-09T12:49:52.330Z,37.9
2022-10-09T12:54:48.565Z,41.2
2022-10-09T12:59:45.344Z,42.7
2022-10-09T13:04:42.841Z,44.1
2022-10-09T13:09:40.780Z,44
2022-10-09T13:14:38.714Z,46
2022-10-09T13:19:36.141Z,46
2022-10-09T13:24:33.755Z,46.4
2022-10-09T13:29:32.079Z,45.8
2022-10-09T13:34:29.629Z,49.1
2022-10-09T13:39:27.103Z,51.9
2022-10-09T13:44:24.487Z,54.4
2022-10-09T13:49:22.056Z,53.7
2022-10-09T13:54:19.777Z,55
2022-10-09T13:59:17.554Z,56.9
2022-10-09T14:04:15.246Z,56.1
2022-10-09T14:09:13.107Z,57.5
2022-10-09T14:14:10.929Z,57.7
2022-10-09T14:19:08.459Z,59.8
2022-10-09T14:24:06.294Z,60
2022-10-09T14:29:04.288Z,60.7
2022-10-09T14:34:02.378Z,63.4
2022-10-09T14:39:00.122Z,64.7
2022-10-09T14:43:58.111Z,65.4
2022-10-09T14:48:55.921Z,65.4
2022-10-09T14:53:53.782Z,67.1
2022-10-09T14:58:51.884Z,67.1
2022-10-09T15:03:49.902Z,68.1
2022-10-09T15:08:47.937Z,69.6
2022-10-09T15:13:46.067Z,69.2
2022-10-09T15:18:43.936Z,72.2
2022-10-09T15:23:41.837Z,75.2
2022-10-09T15:28:39.681Z,76.8
2022-10-09T15:33:37.610Z,79
2022-10-09T15:38:35.345Z,79
2022-10-09T15:43:33.858Z,79.2
2022-10-09T15:48:30.521Z,83.5
2022-10-09T15:53:28.574Z,84.9
2022-10-09T15:58:26.150Z,87.3
2022-10-09T16:03:23.882Z,89.1
2022-10-09T16:08:21.643Z,91
2022-10-09T16:13:19.364Z,92.3
2022-10-09T16:18:17.458Z,93.3
2022-10-09T16:23:15.603Z,94.7
2022-10-09T16:28:13.746Z,96.1
2022-10-09T16:33:12.974Z,96.9
2022-10-09T16:38:09.584Z,97.5
2022-10-09T16:43:07.571Z,97.7
2022-10-09T16:48:05.699Z,97.8
2022-10-09T16:53:03.794Z,98
2022-10-09T16:58:01.818Z,99
2022-10-09T17:03:00.056Z,99.6
2022-10-09T17:07:58.036Z,100
2022-10-09T17:12:56.063Z,100
2022-10-09T17:17:53.860Z,100
2022-10-09T17:22:52.253Z,100
2022-10-09T17:27:49.912Z,100
2022-10-09T17:32:48.390Z,100
2022-10-09T17:37:45.851Z,100
2022-10-09T17:42:44.028Z,100
2022-10-09T17:47:42.092Z,100
2022-10-09T17:52:40.139Z,100
2022-10-09T17:57:38.209Z,100
2022-10-09T18:02:36.346Z,100
2022-10-09T18:07:34.476Z,100
2022-10-09T18:12:32.334Z,100
2022-10-09T18:17:30.407Z,100
2022-10-09T18:22:28.449Z,100
2022-10-09T18:27:26.658Z,100
2022-10-09T18:32:24.801Z,100
2022-10-09T18:37:22.818Z,100
2022-10-09T18:42:20.821Z,100
2022-10-09T18:47:18.926Z,100
2022-10-09T18:52:17.227Z,100
2022-10-09T18:57:15.278Z,100
2022-10-09T19:02:13.377Z,100
2022-10-09T19:07:11.566Z,100
2022-10-09T19:12:09.811Z,100
2022-10-09T19:17:07.787Z,100
2022-10-09T19:22:06.124Z,100
2022-10-09T19:27:04.097Z,100
2022-10-09T19:32:02.240Z,100
2022-10-09T19:37:00.478Z,100
2022-10-09T19:41:58.580Z,100
2022-10-09T19:46:56.780Z,100
2022-10-09T19:51:54.875Z,100
2022-10-09T19:56:52.943Z,100
2022-10-09T20:01:53.967Z,100
2022-10-09T20:06:49.092Z,100
2022-10-09T20:11:47.296Z,100
2022-10-09T20:16:45.507Z,100
2022-10-09T20:21:43.627Z,100
2022-10-09T20:26:43.224Z,100
2022-10-09T20:31:40.000Z,100
2022-10-09T20:36:38.013Z,100
2022-10-09T20:41:36.249Z,100
2022-10-09T20:46:34.026Z,100
2022-10-09T20:51:32.212Z,100
2022-10-09T20:56:30.305Z,100
2022-10-09T21:01:28.624Z,100
2022-10-09T21:06:26.658Z,100
2022-10-09T21:11:25.011Z,100
2022-10-09T21:16:23.110Z,100
2022-10-09T21:21:21.375Z,100
2022-10-09T21:26:19.284Z,100
2022-10-09T21:31:17.341Z,100
2022-10-09T21:36:15.574Z,100
2022-10-09T21:41:13.803Z,100
2022-10-09T21:46:12.107Z,100
2022-10-09T21:51:10.216Z,100
2022-10-09T21:56:08.182Z,100
2022-10-09T22:01:06.286Z,100
2022-10-09T22:06:04.409Z,100
2022-10-09T22:11:02.612Z,100
2022-10-09T22:16:00.599Z,100
2022-10-09T22:20:58.728Z,100
2022-10-09T22:25:56.997Z,100
2022-10-09T22:30:55.292Z,100
2022-10-09T22:35:53.446Z,100
2022-10-09T22:40:51.612Z,100
2022-10-09T22:45:49.712Z,100
2022-10-09T22:50:47.847Z,100
2022-10-09T22:55:45.517Z,100
2022-10-09T23:00:43.633Z,100
2022-10-09T23:05:41.446Z,100
2022-10-09T23:10:39.651Z,100
2022-10-09T23:15:37.674Z,100
2022-10-09T23:20:35.702Z,100
2022-10-09T23:25:33.710Z,100
2022-10-09T23:30:31.865Z,100
2022-10-09T23:35:29.891Z,100
2022-10-09T23:40:27.957Z,100
2022-10-09T23:45:26.200Z,100
2022-10-09T23:50:24.599Z,100
2022-10-09T23:55:22.605Z,100
